createdAt,value
2023-01-25T00:01:50.160Z,9.50
2023-01-25T00:04:18.508Z,9.00
2023-01-25T00:06:46.924Z,9.00
2023-01-25T00:09:15.407Z,9.50
2023-01-25T00:11:45.191Z,11.00
2023-01-25T00:14:15.246Z,10.00
2023-01-25T00:16:44.378Z,10.75
2023-01-25T00:19:13.391Z,15.50
2023-01-25T00:21:42.107Z,13.25
2023-01-25T00:24:12.515Z,16.25
2023-01-25T00:26:40.981Z,18.25
2023-01-25T00:29:09.346Z,14.25
2023-01-25T00:31:58.865Z,19.25
2023-01-25T00:34:39.433Z,16.75
2023-01-25T00:37:31.106Z,14.50
2023-01-25T00:39:59.404Z,20.25
2023-01-25T00:42:27.845Z,14.00
2023-01-25T00:44:56.132Z,17.25
2023-01-25T00:47:24.572Z,14.25
2023-01-25T00:49:52.862Z,14.50
2023-01-25T00:52:21.897Z,13.00
2023-01-25T00:54:50.525Z,13.50
2023-01-25T00:57:18.797Z,14.00
2023-01-25T00:59:48.439Z,14.75
2023-01-25T01:02:16.739Z,13.25
2023-01-25T01:04:45.078Z,15.00
2023-01-25T01:07:15.452Z,16.00
2023-01-25T01:09:43.908Z,15.00
2023-01-25T01:12:12.222Z,15.00
2023-01-25T01:14:40.827Z,18.75
2023-01-25T01:17:09.171Z,13.00
2023-01-25T01:19:37.564Z,16.00
2023-01-25T01:22:05.883Z,15.00
2023-01-25T01:24:34.239Z,16.00
2023-01-25T01:27:02.544Z,14.00
2023-01-25T01:29:31.006Z,11.75
2023-01-25T01:31:59.520Z,12.50
2023-01-25T01:34:27.974Z,13.25
2023-01-25T01:36:56.359Z,12.50
2023-01-25T01:39:24.891Z,13.75
2023-01-25T01:41:53.303Z,11.00
2023-01-25T01:44:43.108Z,14.00
2023-01-25T01:47:25.212Z,12.50
2023-01-25T01:49:59.119Z,13.00
2023-01-25T01:52:34.267Z,12.00
2023-01-25T01:55:16.030Z,13.50
2023-01-25T01:57:53.178Z,12.75
2023-01-25T02:00:31.782Z,11.75
2023-01-25T02:03:00.780Z,13.50
2023-01-25T02:05:32.927Z,13.00
2023-01-25T02:08:04.982Z,13.00
2023-01-25T02:10:33.926Z,13.25
2023-01-25T02:13:02.760Z,12.00
2023-01-25T02:15:39.145Z,12.00
2023-01-25T02:18:07.732Z,14.25
2023-01-25T02:20:43.340Z,10.50
2023-01-25T02:23:19.452Z,12.25
2023-01-25T02:25:48.089Z,12.00
2023-01-25T02:28:16.439Z,10.00
2023-01-25T02:30:44.819Z,11.25
2023-01-25T02:33:13.557Z,11.00
2023-01-25T02:35:54.713Z,11.75
2023-01-25T02:38:23.607Z,10.25
2023-01-25T02:41:05.410Z,12.00
2023-01-25T02:43:36.321Z,11.50
2023-01-25T02:46:17.041Z,12.50
2023-01-25T02:48:45.591Z,11.75
2023-01-25T02:51:14.038Z,12.00
2023-01-25T02:53:42.709Z,11.00
2023-01-25T02:56:11.051Z,11.25
2023-01-25T02:58:39.566Z,12.00
2023-01-25T03:01:11.812Z,10.75
2023-01-25T03:03:40.272Z,13.50
2023-01-25T03:06:09.377Z,12.50
2023-01-25T03:08:38.385Z,17.75
2023-01-25T03:11:08.141Z,15.50
2023-01-25T03:13:37.378Z,14.50
2023-01-25T03:16:10.927Z,15.75
2023-01-25T03:18:40.583Z,16.75
2023-01-25T03:21:15.099Z,15.25
2023-01-25T03:23:45.019Z,15.75
2023-01-25T03:26:22.228Z,14.75
2023-01-25T03:28:50.545Z,14.50
2023-01-25T03:31:19.221Z,13.50
2023-01-25T03:33:48.185Z,13.25
2023-01-25T03:36:16.641Z,12.50
2023-01-25T03:38:44.993Z,11.50
2023-01-25T03:41:14.831Z,10.75
2023-01-25T03:43:43.347Z,13.75
2023-01-25T03:46:11.710Z,12.75
2023-01-25T03:48:40.030Z,11.00
2023-01-25T03:51:08.632Z,11.50
2023-01-25T03:53:36.999Z,10.50
2023-01-25T03:56:09.342Z,10.50
2023-01-25T03:58:39.669Z,11.25
2023-01-25T04:01:09.655Z,10.75
2023-01-25T04:03:38.047Z,13.00
2023-01-25T04:06:07.754Z,10.75
2023-01-25T04:08:36.131Z,8.00
2023-01-25T04:11:10.614Z,9.00
2023-01-25T04:13:40.140Z,10.50
2023-01-25T04:16:12.886Z,10.50
2023-01-25T04:18:41.763Z,10.25
2023-01-25T04:21:10.193Z,9.50
2023-01-25T04:23:38.556Z,11.00
2023-01-25T04:26:09.278Z,9.50
2023-01-25T04:28:37.800Z,9.00
2023-01-25T04:31:07.195Z,11.00
2023-01-25T04:33:35.817Z,9.25
2023-01-25T04:36:04.499Z,8.75
2023-01-25T04:38:32.830Z,9.00
2023-01-25T04:41:01.177Z,9.75
2023-01-25T04:43:29.596Z,8.75
2023-01-25T04:45:58.555Z,8.25
2023-01-25T04:48:27.170Z,9.25
2023-01-25T04:50:55.679Z,10.00
2023-01-25T04:53:24.337Z,9.75
2023-01-25T04:55:52.680Z,9.00
2023-01-25T04:58:21.087Z,9.75
2023-01-25T05:00:49.609Z,9.00
2023-01-25T05:03:17.967Z,10.00
2023-01-25T05:05:49.404Z,10.00
2023-01-25T05:08:17.820Z,11.00
2023-01-25T05:10:46.545Z,8.00
2023-01-25T05:13:15.079Z,8.25
2023-01-25T05:15:43.417Z,7.25
2023-01-25T05:18:11.913Z,8.00
2023-01-25T05:20:40.296Z,9.25
2023-01-25T05:23:08.624Z,11.50
2023-01-25T05:25:55.267Z,9.00
2023-01-25T05:28:23.591Z,8.50
2023-01-25T05:30:51.954Z,8.00
2023-01-25T05:33:20.708Z,8.00
2023-01-25T05:35:49.041Z,8.75
2023-01-25T05:38:17.353Z,10.00
2023-01-25T05:40:45.670Z,8.50
2023-01-25T05:43:13.962Z,8.50
2023-01-25T05:45:42.310Z,9.00
2023-01-25T05:48:10.645Z,9.50
2023-01-25T05:50:38.953Z,9.25
2023-01-25T05:53:07.252Z,7.25
2023-01-25T05:55:37.813Z,8.00
2023-01-25T05:58:06.163Z,8.25
2023-01-25T06:00:34.466Z,7.50
2023-01-25T06:03:03.466Z,7.00
2023-01-25T06:05:31.897Z,9.00
2023-01-25T06:08:00.623Z,8.75
2023-01-25T06:10:28.999Z,7.00
2023-01-25T06:13:01.146Z,9.25
2023-01-25T06:15:29.490Z,7.75
2023-01-25T06:17:58.669Z,9.50
2023-01-25T06:20:27.196Z,9.00
2023-01-25T06:22:55.515Z,8.00
2023-01-25T06:25:24.663Z,7.75
2023-01-25T06:27:53.062Z,7.75
2023-01-25T06:30:21.535Z,6.25
2023-01-25T06:32:51.402Z,7.00
2023-01-25T06:35:19.817Z,6.00
2023-01-25T06:37:48.445Z,7.00
2023-01-25T06:40:17.197Z,6.25
2023-01-25T06:42:46.251Z,9.00
2023-01-25T06:45:14.677Z,7.75
2023-01-25T06:47:43.011Z,9.50
2023-01-25T06:50:11.966Z,11.25
2023-01-25T06:52:40.510Z,9.00
2023-01-25T06:55:13.721Z,8.50
2023-01-25T06:57:42.156Z,6.25
2023-01-25T07:00:11.098Z,7.25
2023-01-25T07:02:39.481Z,9.50
2023-01-25T07:05:08.708Z,6.00
2023-01-25T07:07:37.286Z,7.75
2023-01-25T07:10:06.033Z,7.75
2023-01-25T07:12:34.654Z,5.75
2023-01-25T07:15:04.455Z,7.00
2023-01-25T07:17:33.026Z,6.25
2023-01-25T07:20:01.308Z,7.75
2023-01-25T07:22:29.622Z,7.00
2023-01-25T07:24:59.919Z,7.00
2023-01-25T07:27:28.309Z,7.00
2023-01-25T07:29:56.600Z,5.75
2023-01-25T07:32:24.878Z,7.75
2023-01-25T07:34:53.280Z,7.75
2023-01-25T07:37:21.635Z,6.75
2023-01-25T07:39:51.507Z,7.75
2023-01-25T07:42:20.050Z,6.25
2023-01-25T07:44:48.739Z,8.00
2023-01-25T07:47:17.262Z,6.50
2023-01-25T07:49:45.563Z,6.25
2023-01-25T07:52:13.855Z,5.50
2023-01-25T07:54:42.186Z,9.00
2023-01-25T07:57:10.986Z,8.75
2023-01-25T07:59:39.307Z,6.50
2023-01-25T08:02:09.649Z,6.75
2023-01-25T08:04:37.968Z,7.50
2023-01-25T08:07:06.319Z,8.50
2023-01-25T08:09:34.732Z,9.50
2023-01-25T08:12:03.047Z,8.00
2023-01-25T08:14:31.380Z,7.25
2023-01-25T08:16:59.645Z,7.50
2023-01-25T08:19:28.808Z,9.25
2023-01-25T08:21:57.171Z,8.50
2023-01-25T08:24:25.716Z,7.50
2023-01-25T08:26:54.130Z,9.25
2023-01-25T08:29:22.483Z,11.25
2023-01-25T08:31:50.868Z,9.00
2023-01-25T08:34:19.309Z,9.25
2023-01-25T08:36:47.604Z,8.75
2023-01-25T08:39:15.900Z,9.00
2023-01-25T08:41:44.253Z,6.00
2023-01-25T08:44:12.788Z,8.50
2023-01-25T08:46:41.119Z,9.00
2023-01-25T08:49:11.665Z,6.50
2023-01-25T08:51:40.010Z,5.50
2023-01-25T08:54:10.059Z,6.50
2023-01-25T08:56:40.147Z,7.75
2023-01-25T08:59:09.427Z,8.50
2023-01-25T09:01:37.755Z,7.00
2023-01-25T09:04:06.169Z,8.00
2023-01-25T09:06:35.080Z,6.50
2023-01-25T09:09:05.183Z,9.00
2023-01-25T09:11:37.927Z,8.00
2023-01-25T09:14:06.699Z,8.75
2023-01-25T09:16:35.023Z,6.25
2023-01-25T09:19:06.023Z,5.75
2023-01-25T09:21:35.231Z,7.25
2023-01-25T09:24:06.594Z,7.00
2023-01-25T09:26:37.923Z,6.25
2023-01-25T09:29:06.422Z,8.00
2023-01-25T09:31:35.236Z,10.50
2023-01-25T09:34:03.866Z,8.75
2023-01-25T09:36:32.169Z,6.50
2023-01-25T09:39:00.898Z,10.25
2023-01-25T09:41:47.470Z,8.00
2023-01-25T09:44:36.671Z,8.00
2023-01-25T09:47:27.075Z,8.75
2023-01-25T09:50:22.734Z,7.00
2023-01-25T09:53:29.111Z,6.50
2023-01-25T09:56:03.029Z,6.25
2023-01-25T09:58:39.160Z,7.50
2023-01-25T10:01:38.185Z,7.50
2023-01-25T10:04:20.973Z,6.00
2023-01-25T10:07:01.041Z,7.00
2023-01-25T10:09:43.945Z,6.00
2023-01-25T10:12:26.448Z,6.75
2023-01-25T10:14:55.987Z,6.75
2023-01-25T10:17:41.774Z,5.00
2023-01-25T10:20:19.122Z,5.00
2023-01-25T10:23:26.395Z,7.00
2023-01-25T10:26:00.102Z,6.00
2023-01-25T10:28:35.264Z,6.25
2023-01-25T10:31:28.617Z,6.00
2023-01-25T10:33:58.796Z,7.50
2023-01-25T10:36:33.074Z,6.25
2023-01-25T10:39:03.725Z,7.75
2023-01-25T10:41:39.754Z,7.25
2023-01-25T10:44:24.883Z,6.00
2023-01-25T10:47:08.440Z,6.75
2023-01-25T10:49:42.376Z,7.50
2023-01-25T10:52:14.585Z,7.50
2023-01-25T10:54:43.065Z,6.50
2023-01-25T10:57:18.482Z,6.25
2023-01-25T10:59:53.965Z,7.25
2023-01-25T11:02:42.643Z,8.25
2023-01-25T11:05:20.053Z,6.50
2023-01-25T11:07:48.975Z,8.00
2023-01-25T11:10:37.269Z,6.00
2023-01-25T11:13:18.141Z,7.50
2023-01-25T11:16:05.879Z,8.75
2023-01-25T11:18:39.028Z,6.00
2023-01-25T11:21:13.629Z,7.00
2023-01-25T11:23:42.112Z,8.75
2023-01-25T11:26:20.859Z,8.00
2023-01-25T11:28:51.956Z,8.50
2023-01-25T11:31:24.233Z,8.25
2023-01-25T11:33:52.630Z,9.50
2023-01-25T11:36:46.563Z,9.00
2023-01-25T11:39:59.866Z,8.75
2023-01-25T11:42:59.440Z,9.00
2023-01-25T11:45:48.808Z,10.00
2023-01-25T11:48:47.259Z,7.75
2023-01-25T11:51:30.317Z,9.00
2023-01-25T11:54:24.679Z,9.75
2023-01-25T11:57:00.530Z,8.00
2023-01-25T11:59:43.879Z,9.00
2023-01-25T12:02:51.314Z,10.00
2023-01-25T12:05:39.052Z,8.50
2023-01-25T12:08:25.701Z,7.00
2023-01-25T12:11:18.180Z,7.50
2023-01-25T12:14:04.108Z,7.25
2023-01-25T12:16:56.573Z,8.75
2023-01-25T12:19:36.676Z,7.25
2023-01-25T12:22:40.337Z,7.50
2023-01-25T12:25:34.314Z,8.75
2023-01-25T12:28:15.031Z,9.00
2023-01-25T12:31:06.585Z,8.50
2023-01-25T12:34:03.209Z,8.00
2023-01-25T12:36:41.746Z,8.25
2023-01-25T12:39:25.493Z,8.50
2023-01-25T12:42:16.459Z,6.25
2023-01-25T12:45:00.666Z,8.00
2023-01-25T12:47:45.264Z,7.50
2023-01-25T12:50:34.904Z,9.00
2023-01-25T12:53:06.512Z,8.75
2023-01-25T12:55:35.162Z,7.75
2023-01-25T12:58:26.449Z,9.25
2023-01-25T13:01:16.524Z,9.00
2023-01-25T13:04:12.190Z,9.75
2023-01-25T13:06:59.541Z,9.50
2023-01-25T13:09:36.965Z,11.50
2023-01-25T13:12:06.310Z,14.50
2023-01-25T13:14:42.117Z,13.25
2023-01-25T13:17:25.128Z,15.25
2023-01-25T13:19:54.403Z,17.25
2023-01-25T13:22:44.281Z,18.50
2023-01-25T13:25:18.716Z,19.00
2023-01-25T13:27:47.047Z,19.00
2023-01-25T13:30:32.214Z,21.00
2023-01-25T13:33:09.563Z,21.00
2023-01-25T13:35:43.053Z,19.75
2023-01-25T13:38:13.176Z,21.00
2023-01-25T13:40:42.070Z,20.00
2023-01-25T13:43:13.506Z,19.00
2023-01-25T13:45:43.156Z,19.00
2023-01-25T13:48:27.243Z,20.50
2023-01-25T13:51:02.260Z,19.00
2023-01-25T13:53:34.163Z,19.00
2023-01-25T13:56:03.658Z,17.50
2023-01-25T13:58:38.428Z,20.50
2023-01-25T14:01:19.718Z,19.50
2023-01-25T14:03:54.036Z,19.75
2023-01-25T14:06:25.676Z,21.00
2023-01-25T14:08:56.973Z,20.00
2023-01-25T14:11:33.461Z,21.00
2023-01-25T14:14:25.572Z,20.25
2023-01-25T14:17:18.657Z,19.75
2023-01-25T14:19:51.324Z,20.00
2023-01-25T14:22:34.742Z,20.00
2023-01-25T14:25:11.072Z,23.50
2023-01-25T14:27:49.680Z,24.00
2023-01-25T14:30:22.914Z,27.50
2023-01-25T14:32:53.267Z,29.25
2023-01-25T14:35:53.761Z,31.75
2023-01-25T14:38:31.157Z,31.25
2023-01-25T14:41:05.001Z,29.50
2023-01-25T14:43:34.117Z,29.50
2023-01-25T14:46:02.432Z,28.50
2023-01-25T14:48:44.079Z,27.50
2023-01-25T14:51:16.961Z,26.50
2023-01-25T14:53:50.540Z,26.25
2023-01-25T14:56:46.659Z,26.25
2023-01-25T14:59:40.776Z,23.75
2023-01-25T15:02:25.894Z,26.75
2023-01-25T15:05:15.485Z,24.25
2023-01-25T15:07:44.322Z,23.75
2023-01-25T15:10:28.208Z,22.50
2023-01-25T15:13:13.670Z,23.75
2023-01-25T15:16:03.759Z,26.00
2023-01-25T15:18:52.681Z,23.00
2023-01-25T15:21:32.719Z,26.00
2023-01-25T15:24:07.314Z,26.00
2023-01-25T15:26:36.919Z,27.00
2023-01-25T15:29:17.761Z,26.00
2023-01-25T15:31:46.044Z,25.25
2023-01-25T15:34:27.700Z,25.00
2023-01-25T15:36:56.229Z,23.25
2023-01-25T15:39:24.517Z,23.75
2023-01-25T15:41:52.820Z,25.75
2023-01-25T15:44:21.416Z,25.00
2023-01-25T15:46:52.520Z,23.00
2023-01-25T15:49:27.920Z,24.75
2023-01-25T15:51:57.168Z,23.25
2023-01-25T15:54:25.555Z,24.75
2023-01-25T15:56:57.906Z,24.00
2023-01-25T15:59:27.851Z,24.75
2023-01-25T16:01:56.236Z,25.75
2023-01-25T16:04:26.119Z,25.75
2023-01-25T16:06:55.935Z,25.50
2023-01-25T16:09:27.765Z,24.50
2023-01-25T16:11:58.267Z,24.00
2023-01-25T16:14:30.011Z,23.00
2023-01-25T16:17:04.852Z,22.25
2023-01-25T16:19:34.454Z,23.25
2023-01-25T16:22:02.818Z,22.50
2023-01-25T16:24:31.122Z,22.25
2023-01-25T16:27:01.812Z,22.25
2023-01-25T16:29:30.609Z,24.50
2023-01-25T16:31:59.206Z,23.00
2023-01-25T16:34:27.601Z,22.50
2023-01-25T16:36:55.957Z,22.00
2023-01-25T16:39:26.279Z,22.00
2023-01-25T16:41:55.196Z,23.75
2023-01-25T16:44:23.558Z,21.75
2023-01-25T16:46:52.092Z,22.25
2023-01-25T16:49:31.363Z,21.00
2023-01-25T16:52:01.086Z,22.00
2023-01-25T16:54:29.769Z,23.00
2023-01-25T16:56:59.012Z,22.75
2023-01-25T16:59:28.635Z,22.00
2023-01-25T17:01:57.013Z,23.50
2023-01-25T17:04:25.297Z,23.00
2023-01-25T17:06:54.077Z,21.00
2023-01-25T17:09:24.913Z,22.00
2023-01-25T17:11:54.900Z,21.75
2023-01-25T17:14:24.160Z,21.00
2023-01-25T17:16:54.099Z,22.00
2023-01-25T17:19:22.590Z,21.25
2023-01-25T17:21:51.004Z,22.25
2023-01-25T17:24:22.391Z,22.50
2023-01-25T17:26:51.821Z,22.00
2023-01-25T17:29:20.190Z,23.25
2023-01-25T17:31:48.772Z,20.00
2023-01-25T17:34:19.605Z,20.00
2023-01-25T17:36:47.945Z,21.50
2023-01-25T17:39:18.020Z,20.75
2023-01-25T17:41:48.365Z,20.50
2023-01-25T17:44:24.037Z,20.75
2023-01-25T17:46:52.902Z,20.25
2023-01-25T17:49:23.359Z,21.50
2023-01-25T17:51:51.841Z,19.50
2023-01-25T17:54:20.671Z,18.50
2023-01-25T17:56:49.057Z,19.75
2023-01-25T17:59:17.442Z,19.50
2023-01-25T18:01:45.820Z,16.75
2023-01-25T18:04:14.224Z,15.00
2023-01-25T18:06:42.580Z,16.25
2023-01-25T18:09:10.986Z,20.00
2023-01-25T18:11:41.826Z,16.75
2023-01-25T18:14:13.637Z,17.75
2023-01-25T18:16:42.522Z,18.00
2023-01-25T18:19:12.496Z,18.00
2023-01-25T18:21:43.268Z,17.25
2023-01-25T18:24:35.637Z,17.00
2023-01-25T18:27:12.299Z,16.25
2023-01-25T18:29:41.472Z,16.75
2023-01-25T18:32:09.775Z,15.75
2023-01-25T18:34:38.092Z,16.00
2023-01-25T18:37:18.666Z,15.25
2023-01-25T18:39:48.291Z,19.75
2023-01-25T18:42:17.125Z,18.75
2023-01-25T18:44:49.123Z,16.00
2023-01-25T18:47:21.917Z,15.50
2023-01-25T18:49:51.850Z,18.00
2023-01-25T18:52:22.186Z,18.00
2023-01-25T18:54:50.757Z,15.50
2023-01-25T18:57:19.241Z,16.50
2023-01-25T18:59:47.661Z,18.75
2023-01-25T19:02:18.305Z,18.25
2023-01-25T19:04:46.755Z,18.00
2023-01-25T19:07:15.117Z,17.00
2023-01-25T19:09:46.207Z,18.00
2023-01-25T19:12:14.593Z,16.50
2023-01-25T19:14:42.966Z,17.50
2023-01-25T19:17:11.574Z,17.00
2023-01-25T19:19:39.955Z,15.50
2023-01-25T19:22:08.273Z,16.50
2023-01-25T19:24:36.884Z,17.75
2023-01-25T19:27:05.356Z,17.75
2023-01-25T19:29:33.877Z,15.00
2023-01-25T19:32:02.172Z,15.00
2023-01-25T19:34:30.466Z,16.25
2023-01-25T19:36:59.165Z,17.75
2023-01-25T19:39:27.545Z,17.50
2023-01-25T19:41:55.963Z,16.75
2023-01-25T19:44:25.974Z,16.50
2023-01-25T19:46:54.349Z,17.00
2023-01-25T19:49:23.271Z,14.25
2023-01-25T19:51:53.903Z,16.25
2023-01-25T19:54:22.627Z,15.50
2023-01-25T19:56:51.475Z,15.75
2023-01-25T19:59:26.321Z,13.75
2023-01-25T20:01:54.925Z,13.75
2023-01-25T20:04:25.508Z,14.00
2023-01-25T20:06:54.119Z,15.00
2023-01-25T20:09:28.612Z,15.25
2023-01-25T20:11:58.649Z,16.00
2023-01-25T20:14:27.005Z,15.00
2023-01-25T20:16:55.444Z,15.75
2023-01-25T20:19:23.797Z,13.50
2023-01-25T20:21:52.208Z,15.25
2023-01-25T20:24:20.681Z,14.25
2023-01-25T20:26:49.953Z,14.50
2023-01-25T20:29:18.261Z,15.00
2023-01-25T20:31:47.458Z,13.75
2023-01-25T20:34:18.729Z,14.50
2023-01-25T20:36:47.570Z,15.25
2023-01-25T20:39:18.675Z,17.50
2023-01-25T20:41:47.611Z,16.25
2023-01-25T20:44:18.872Z,16.50
2023-01-25T20:46:47.581Z,17.25
2023-01-25T20:49:18.890Z,16.25
2023-01-25T20:51:48.523Z,15.25
2023-01-25T20:54:19.043Z,16.00
2023-01-25T20:56:51.263Z,16.50
2023-01-25T20:59:20.153Z,16.50
2023-01-25T21:01:48.647Z,16.00
2023-01-25T21:04:17.415Z,17.25
2023-01-25T21:06:45.717Z,15.25
2023-01-25T21:09:14.407Z,17.00
2023-01-25T21:11:43.178Z,16.00
2023-01-25T21:14:11.722Z,16.75
2023-01-25T21:16:40.072Z,15.75
2023-01-25T21:19:08.879Z,15.75
2023-01-25T21:21:39.153Z,15.00
2023-01-25T21:24:07.865Z,14.00
2023-01-25T21:26:38.025Z,15.75
2023-01-25T21:29:07.695Z,16.25
2023-01-25T21:31:38.862Z,17.00
2023-01-25T21:34:07.725Z,16.00
2023-01-25T21:36:36.092Z,17.00
2023-01-25T21:39:04.597Z,14.25
2023-01-25T21:41:36.467Z,16.25
2023-01-25T21:44:23.725Z,16.25
2023-01-25T21:47:19.746Z,15.25
2023-01-25T21:49:59.780Z,17.25
2023-01-25T21:52:28.062Z,17.50
2023-01-25T21:54:56.396Z,16.75
2023-01-25T21:57:24.702Z,16.25
2023-01-25T21:59:54.415Z,15.50
2023-01-25T22:02:23.554Z,15.00
2023-01-25T22:04:51.962Z,17.50
2023-01-25T22:07:20.616Z,18.00
2023-01-25T22:09:50.357Z,16.75
2023-01-25T22:12:18.821Z,15.75
2023-01-25T22:14:47.267Z,18.00
2023-01-25T22:17:15.560Z,17.75
2023-01-25T22:19:43.925Z,15.75
2023-01-25T22:22:12.210Z,16.00
2023-01-25T22:24:40.561Z,18.75
2023-01-25T22:27:38.476Z,15.50
2023-01-25T22:30:07.973Z,17.50
2023-01-25T22:32:36.392Z,18.50
2023-01-25T22:35:04.832Z,19.50
2023-01-25T22:37:36.660Z,19.00
2023-01-25T22:40:06.351Z,20.00
2023-01-25T22:42:35.981Z,17.25
2023-01-25T22:45:04.300Z,18.50
2023-01-25T22:47:32.585Z,21.00
2023-01-25T22:50:00.946Z,17.00
2023-01-25T22:52:29.243Z,19.50
2023-01-25T22:54:57.551Z,16.00
2023-01-25T22:57:25.895Z,18.00
2023-01-25T22:59:54.239Z,20.75
2023-01-25T23:02:22.546Z,19.00
2023-01-25T23:04:50.840Z,20.00
2023-01-25T23:07:19.784Z,17.50
2023-01-25T23:09:52.466Z,20.75
2023-01-25T23:12:21.490Z,20.75
2023-01-25T23:14:52.361Z,18.25
2023-01-25T23:17:43.451Z,17.50
2023-01-25T23:20:13.743Z,21.00
2023-01-25T23:22:42.562Z,21.25
2023-01-25T23:25:12.777Z,19.75
2023-01-25T23:27:41.553Z,21.00
2023-01-25T23:30:10.985Z,21.00
2023-01-25T23:32:39.533Z,21.00
2023-01-25T23:35:08.413Z,20.75
2023-01-25T23:37:36.701Z,20.00
2023-01-25T23:40:06.222Z,21.75
2023-01-25T23:42:34.505Z,20.25
2023-01-25T23:45:02.901Z,22.50
2023-01-25T23:47:31.297Z,20.25
2023-01-25T23:49:59.567Z,20.50
2023-01-25T23:52:28.440Z,22.00
2023-01-25T23:54:56.706Z,20.25
2023-01-25T23:57:25.245Z,21.50
2023-01-25T23:59:53.643Z,21.00
